sensor_id;sensor_type;location;lat;lon;timestamp;temperature;humidity
23271;DHT22;11804;51.118;17.058;2023-06-22T00:00:00;24.60;99.90
23271;DHT22;11804;51.118;17.058;2023-06-22T00:02:28;24.60;99.90
23271;DHT22;11804;51.118;17.058;2023-06-22T00:04:55;24.50;99.90
23271;DHT22;11804;51.118;17.058;2023-06-22T00:07:23;24.50;99.90
23271;DHT22;11804;51.118;17.058;2023-06-22T00:09:50;24.50;99.90
23271;DHT22;11804;51.118;17.058;2023-06-22T00:12:18;24.50;99.90
23271;DHT22;11804;51.118;17.058;2023-06-22T00:14:45;24.50;99.90
23271;DHT22;11804;51.118;17.058;2023-06-22T00:17:13;24.50;99.90
23271;DHT22;11804;51.118;17.058;2023-06-22T00:19:40;24.40;99.90
23271;DHT22;11804;51.118;17.058;2023-06-22T00:22:08;24.40;99.90
23271;DHT22;11804;51.118;17.058;2023-06-22T00:24:39;24.40;99.90
23271;DHT22;11804;51.118;17.058;2023-06-22T00:27:06;24.40;99.90
23271;DHT22;11804;51.118;17.058;2023-06-22T00:29:34;24.40;99.90
23271;DHT22;11804;51.118;17.058;2023-06-22T00:32:02;24.30;99.90
23271;DHT22;11804;51.118;17.058;2023-06-22T00:34:30;24.30;99.90
23271;DHT22;11804;51.118;17.058;2023-06-22T00:36:57;24.30;99.90
23271;DHT22;11804;51.118;17.058;2023-06-22T00:39:26;24.30;99.90
23271;DHT22;11804;51.118;17.058;2023-06-22T00:41:53;24.20;99.90
23271;DHT22;11804;51.118;17.058;2023-06-22T00:44:22;24.20;99.90
23271;DHT22;11804;51.118;17.058;2023-06-22T00:46:50;24.20;99.90
23271;DHT22;11804;51.118;17.058;2023-06-22T00:49:17;24.20;99.90
23271;DHT22;11804;51.118;17.058;2023-06-22T00:51:45;24.10;99.90
23271;DHT22;11804;51.118;17.058;2023-06-22T00:54:14;24.10;99.90
23271;DHT22;11804;51.118;17.058;2023-06-22T00:56:42;24.10;99.90
23271;DHT22;11804;51.118;17.058;2023-06-22T00:59:11;24.00;99.90
23271;DHT22;11804;51.118;17.058;2023-06-22T01:01:39;24.00;99.90
23271;DHT22;11804;51.118;17.058;2023-06-22T01:04:08;23.90;99.90
23271;DHT22;11804;51.118;17.058;2023-06-22T01:06:39;23.90;99.90
23271;DHT22;11804;51.118;17.058;2023-06-22T01:09:12;23.90;99.90
23271;DHT22;11804;51.118;17.058;2023-06-22T01:11:44;23.80;99.90
23271;DHT22;11804;51.118;17.058;2023-06-22T01:17:03;23.80;99.90
23271;DHT22;11804;51.118;17.058;2023-06-22T01:19:49;23.80;99.90
23271;DHT22;11804;51.118;17.058;2023-06-22T01:22:28;23.70;99.90
23271;DHT22;11804;51.118;17.058;2023-06-22T01:30:27;23.70;99.90
23271;DHT22;11804;51.118;17.058;2023-06-22T01:32:56;23.60;99.90
23271;DHT22;11804;51.118;17.058;2023-06-22T01:35:25;23.60;99.90
23271;DHT22;11804;51.118;17.058;2023-06-22T01:37:53;23.50;99.90
23271;DHT22;11804;51.118;17.058;2023-06-22T01:40:21;23.60;99.90
23271;DHT22;11804;51.118;17.058;2023-06-22T01:42:50;23.50;99.90
23271;DHT22;11804;51.118;17.058;2023-06-22T01:45:19;23.50;99.90
23271;DHT22;11804;51.118;17.058;2023-06-22T01:47:47;23.40;99.90
23271;DHT22;11804;51.118;17.058;2023-06-22T01:50:15;23.40;99.90
23271;DHT22;11804;51.118;17.058;2023-06-22T01:52:43;23.30;99.90
23271;DHT22;11804;51.118;17.058;2023-06-22T01:55:10;23.30;99.90
23271;DHT22;11804;51.118;17.058;2023-06-22T01:57:38;23.30;99.90
23271;DHT22;11804;51.118;17.058;2023-06-22T02:00:12;23.20;99.90
23271;DHT22;11804;51.118;17.058;2023-06-22T02:02:54;23.20;99.90
23271;DHT22;11804;51.118;17.058;2023-06-22T02:05:24;23.20;99.90
23271;DHT22;11804;51.118;17.058;2023-06-22T02:08:02;23.20;99.90
23271;DHT22;11804;51.118;17.058;2023-06-22T02:10:30;23.10;99.90
23271;DHT22;11804;51.118;17.058;2023-06-22T02:12:59;23.10;99.90
23271;DHT22;11804;51.118;17.058;2023-06-22T02:15:31;23.20;99.90
23271;DHT22;11804;51.118;17.058;2023-06-22T02:17:59;23.20;99.90
23271;DHT22;11804;51.118;17.058;2023-06-22T02:20:27;23.20;99.90
23271;DHT22;11804;51.118;17.058;2023-06-22T02:22:54;23.20;99.90
23271;DHT22;11804;51.118;17.058;2023-06-22T02:25:22;23.20;99.90
23271;DHT22;11804;51.118;17.058;2023-06-22T02:27:49;23.20;99.90
23271;DHT22;11804;51.118;17.058;2023-06-22T02:30:17;23.10;99.90
23271;DHT22;11804;51.118;17.058;2023-06-22T02:32:45;23.00;99.90
23271;DHT22;11804;51.118;17.058;2023-06-22T02:35:12;23.00;99.90
23271;DHT22;11804;51.118;17.058;2023-06-22T02:37:41;23.00;99.90
23271;DHT22;11804;51.118;17.058;2023-06-22T02:40:09;23.00;99.90
23271;DHT22;11804;51.118;17.058;2023-06-22T02:42:39;23.00;99.90
23271;DHT22;11804;51.118;17.058;2023-06-22T02:45:07;23.00;99.90
23271;DHT22;11804;51.118;17.058;2023-06-22T02:47:35;23.00;99.90
23271;DHT22;11804;51.118;17.058;2023-06-22T02:50:02;22.90;99.90
23271;DHT22;11804;51.118;17.058;2023-06-22T02:52:30;22.90;99.90
23271;DHT22;11804;51.118;17.058;2023-06-22T02:54:58;22.90;99.90
23271;DHT22;11804;51.118;17.058;2023-06-22T02:57:25;22.90;99.90
23271;DHT22;11804;51.118;17.058;2023-06-22T02:59:53;22.90;99.90
23271;DHT22;11804;51.118;17.058;2023-06-22T03:02:22;22.90;99.90
23271;DHT22;11804;51.118;17.058;2023-06-22T03:04:49;23.00;99.90
23271;DHT22;11804;51.118;17.058;2023-06-22T03:07:19;23.00;99.90
23271;DHT22;11804;51.118;17.058;2023-06-22T03:09:47;23.00;99.90
23271;DHT22;11804;51.118;17.058;2023-06-22T03:12:14;23.00;99.90
23271;DHT22;11804;51.118;17.058;2023-06-22T03:14:42;23.00;99.90
23271;DHT22;11804;51.118;17.058;2023-06-22T03:17:10;23.00;99.90
23271;DHT22;11804;51.118;17.058;2023-06-22T03:19:38;23.00;99.90
23271;DHT22;11804;51.118;17.058;2023-06-22T03:22:05;23.10;99.90
23271;DHT22;11804;51.118;17.058;2023-06-22T03:24:34;23.10;99.90
23271;DHT22;11804;51.118;17.058;2023-06-22T03:27:05;23.10;99.90
23271;DHT22;11804;51.118;17.058;2023-06-22T03:29:32;23.20;99.90
23271;DHT22;11804;51.118;17.058;2023-06-22T03:32:00;23.70;99.90
23271;DHT22;11804;51.118;17.058;2023-06-22T03:34:28;24.20;99.90
23271;DHT22;11804;51.118;17.058;2023-06-22T03:36:57;24.80;99.90
23271;DHT22;11804;51.118;17.058;2023-06-22T03:39:25;25.20;99.90
23271;DHT22;11804;51.118;17.058;2023-06-22T03:41:52;25.60;99.90
23271;DHT22;11804;51.118;17.058;2023-06-22T03:44:20;25.90;99.90
23271;DHT22;11804;51.118;17.058;2023-06-22T03:46:47;26.10;99.90
23271;DHT22;11804;51.118;17.058;2023-06-22T03:49:15;26.40;99.90
23271;DHT22;11804;51.118;17.058;2023-06-22T03:51:42;26.50;99.90
23271;DHT22;11804;51.118;17.058;2023-06-22T03:54:10;26.70;99.90
23271;DHT22;11804;51.118;17.058;2023-06-22T03:56:38;26.80;99.90
23271;DHT22;11804;51.118;17.058;2023-06-22T03:59:05;26.80;99.90
23271;DHT22;11804;51.118;17.058;2023-06-22T04:01:33;26.90;99.40
23271;DHT22;11804;51.118;17.058;2023-06-22T04:04:01;27.00;99.00
23271;DHT22;11804;51.118;17.058;2023-06-22T04:06:29;27.10;97.80
23271;DHT22;11804;51.118;17.058;2023-06-22T04:08:57;27.10;97.60
23271;DHT22;11804;51.118;17.058;2023-06-22T04:11:25;27.20;97.10
23271;DHT22;11804;51.118;17.058;2023-06-22T04:13:52;27.20;97.50
23271;DHT22;11804;51.118;17.058;2023-06-22T04:16:20;27.30;96.80
23271;DHT22;11804;51.118;17.058;2023-06-22T04:18:47;27.60;94.70
23271;DHT22;11804;51.118;17.058;2023-06-22T04:21:15;27.90;93.10
23271;DHT22;11804;51.118;17.058;2023-06-22T04:23:42;28.10;92.20
23271;DHT22;11804;51.118;17.058;2023-06-22T04:26:10;27.90;92.20
23271;DHT22;11804;51.118;17.058;2023-06-22T04:28:38;27.70;92.60
23271;DHT22;11804;51.118;17.058;2023-06-22T04:31:06;27.60;93.30
23271;DHT22;11804;51.118;17.058;2023-06-22T04:33:34;27.70;93.00
23271;DHT22;11804;51.118;17.058;2023-06-22T04:36:01;28.00;91.50
23271;DHT22;11804;51.118;17.058;2023-06-22T04:38:30;28.10;91.00
23271;DHT22;11804;51.118;17.058;2023-06-22T04:40:59;27.80;91.90
23271;DHT22;11804;51.118;17.058;2023-06-22T04:43:29;27.90;91.50
23271;DHT22;11804;51.118;17.058;2023-06-22T04:46:00;28.00;91.60
23271;DHT22;11804;51.118;17.058;2023-06-22T04:48:30;28.30;90.90
23271;DHT22;11804;51.118;17.058;2023-06-22T04:51:01;28.60;88.50
23271;DHT22;11804;51.118;17.058;2023-06-22T04:53:31;28.70;86.20
23271;DHT22;11804;51.118;17.058;2023-06-22T04:55:59;29.00;83.60
23271;DHT22;11804;51.118;17.058;2023-06-22T04:58:27;29.00;83.50
23271;DHT22;11804;51.118;17.058;2023-06-22T05:00:55;29.10;82.60
23271;DHT22;11804;51.118;17.058;2023-06-22T05:03:25;29.10;82.10
23271;DHT22;11804;51.118;17.058;2023-06-22T05:05:53;29.10;82.60
23271;DHT22;11804;51.118;17.058;2023-06-22T05:08:21;28.90;82.90
23271;DHT22;11804;51.118;17.058;2023-06-22T05:10:50;28.30;87.60
23271;DHT22;11804;51.118;17.058;2023-06-22T05:13:18;28.20;90.20
23271;DHT22;11804;51.118;17.058;2023-06-22T05:15:47;28.60;87.90
23271;DHT22;11804;51.118;17.058;2023-06-22T05:18:14;28.90;86.20
23271;DHT22;11804;51.118;17.058;2023-06-22T05:20:42;29.30;82.00
23271;DHT22;11804;51.118;17.058;2023-06-22T05:23:09;29.90;78.50
23271;DHT22;11804;51.118;17.058;2023-06-22T05:25:37;29.80;76.20
23271;DHT22;11804;51.118;17.058;2023-06-22T05:28:05;29.40;80.90
23271;DHT22;11804;51.118;17.058;2023-06-22T05:30:34;29.60;79.30
23271;DHT22;11804;51.118;17.058;2023-06-22T05:33:01;28.80;82.30
23271;DHT22;11804;51.118;17.058;2023-06-22T05:35:29;28.60;83.40
23271;DHT22;11804;51.118;17.058;2023-06-22T05:37:57;27.90;87.50
23271;DHT22;11804;51.118;17.058;2023-06-22T05:40:24;26.90;93.10
23271;DHT22;11804;51.118;17.058;2023-06-22T05:42:52;27.30;90.00
23271;DHT22;11804;51.118;17.058;2023-06-22T05:45:20;26.80;91.10
23271;DHT22;11804;51.118;17.058;2023-06-22T05:47:47;25.70;94.30
23271;DHT22;11804;51.118;17.058;2023-06-22T05:50:15;25.50;95.40
23271;DHT22;11804;51.118;17.058;2023-06-22T05:52:43;25.60;94.80
23271;DHT22;11804;51.118;17.058;2023-06-22T05:55:10;25.50;94.10
23271;DHT22;11804;51.118;17.058;2023-06-22T05:57:38;26.50;91.10
23271;DHT22;11804;51.118;17.058;2023-06-22T06:00:07;26.10;90.80
23271;DHT22;11804;51.118;17.058;2023-06-22T06:02:36;25.50;93.10
23271;DHT22;11804;51.118;17.058;2023-06-22T06:05:06;25.50;93.70
23271;DHT22;11804;51.118;17.058;2023-06-22T06:07:37;25.90;92.20
23271;DHT22;11804;51.118;17.058;2023-06-22T06:10:05;26.10;91.40
23271;DHT22;11804;51.118;17.058;2023-06-22T06:12:33;26.50;87.80
23271;DHT22;11804;51.118;17.058;2023-06-22T06:15:01;27.20;84.80
23271;DHT22;11804;51.118;17.058;2023-06-22T06:17:29;28.20;75.70
23271;DHT22;11804;51.118;17.058;2023-06-22T06:19:56;28.80;72.80
23271;DHT22;11804;51.118;17.058;2023-06-22T06:22:24;28.80;73.70
23271;DHT22;11804;51.118;17.058;2023-06-22T06:24:52;29.20;68.30
23271;DHT22;11804;51.118;17.058;2023-06-22T06:27:19;28.50;70.70
23271;DHT22;11804;51.118;17.058;2023-06-22T06:29:47;27.90;74.10
23271;DHT22;11804;51.118;17.058;2023-06-22T06:32:15;27.20;79.00
23271;DHT22;11804;51.118;17.058;2023-06-22T06:34:42;26.80;82.20
23271;DHT22;11804;51.118;17.058;2023-06-22T06:37:10;27.10;82.90
23271;DHT22;11804;51.118;17.058;2023-06-22T06:39:37;26.80;82.50
23271;DHT22;11804;51.118;17.058;2023-06-22T06:42:05;26.50;86.40
23271;DHT22;11804;51.118;17.058;2023-06-22T06:44:33;26.50;87.10
23271;DHT22;11804;51.118;17.058;2023-06-22T06:47:01;25.80;90.20
23271;DHT22;11804;51.118;17.058;2023-06-22T06:49:29;25.90;92.20
23271;DHT22;11804;51.118;17.058;2023-06-22T06:51:56;26.50;90.40
23271;DHT22;11804;51.118;17.058;2023-06-22T06:54:24;26.70;90.00
23271;DHT22;11804;51.118;17.058;2023-06-22T06:56:51;27.30;84.30
23271;DHT22;11804;51.118;17.058;2023-06-22T06:59:19;27.40;85.70
23271;DHT22;11804;51.118;17.058;2023-06-22T07:01:46;27.70;82.90
23271;DHT22;11804;51.118;17.058;2023-06-22T07:04:15;29.20;74.70
23271;DHT22;11804;51.118;17.058;2023-06-22T07:06:44;31.00;65.10
23271;DHT22;11804;51.118;17.058;2023-06-22T07:09:12;31.40;60.30
23271;DHT22;11804;51.118;17.058;2023-06-22T07:11:39;31.70;58.30
23271;DHT22;11804;51.118;17.058;2023-06-22T07:14:07;31.90;57.10
23271;DHT22;11804;51.118;17.058;2023-06-22T07:16:34;32.70;56.30
23271;DHT22;11804;51.118;17.058;2023-06-22T07:19:02;33.50;54.00
23271;DHT22;11804;51.118;17.058;2023-06-22T07:21:29;33.50;53.00
23271;DHT22;11804;51.118;17.058;2023-06-22T07:23:57;32.60;53.50
23271;DHT22;11804;51.118;17.058;2023-06-22T07:26:25;32.60;53.40
23271;DHT22;11804;51.118;17.058;2023-06-22T07:28:52;31.50;56.30
23271;DHT22;11804;51.118;17.058;2023-06-22T07:31:20;30.80;57.50
23271;DHT22;11804;51.118;17.058;2023-06-22T07:33:48;30.90;58.70
23271;DHT22;11804;51.118;17.058;2023-06-22T07:36:16;31.70;56.70
23271;DHT22;11804;51.118;17.058;2023-06-22T07:38:44;31.70;56.00
23271;DHT22;11804;51.118;17.058;2023-06-22T07:41:13;30.90;57.30
23271;DHT22;11804;51.118;17.058;2023-06-22T07:43:41;30.00;60.90
23271;DHT22;11804;51.118;17.058;2023-06-22T07:46:09;30.70;60.20
23271;DHT22;11804;51.118;17.058;2023-06-22T07:48:37;32.10;55.80
23271;DHT22;11804;51.118;17.058;2023-06-22T07:51:05;32.70;53.90
23271;DHT22;11804;51.118;17.058;2023-06-22T07:53:33;32.30;54.60
23271;DHT22;11804;51.118;17.058;2023-06-22T07:56:02;32.70;54.00
23271;DHT22;11804;51.118;17.058;2023-06-22T07:58:32;32.60;53.30
23271;DHT22;11804;51.118;17.058;2023-06-22T08:01:00;32.30;53.10
23271;DHT22;11804;51.118;17.058;2023-06-22T08:03:27;32.60;52.60
23271;DHT22;11804;51.118;17.058;2023-06-22T08:05:55;32.60;53.00
23271;DHT22;11804;51.118;17.058;2023-06-22T08:08:22;31.80;55.00
23271;DHT22;11804;51.118;17.058;2023-06-22T08:10:50;32.40;53.10
23271;DHT22;11804;51.118;17.058;2023-06-22T08:13:17;33.10;51.80
23271;DHT22;11804;51.118;17.058;2023-06-22T08:15:45;32.30;53.40
23271;DHT22;11804;51.118;17.058;2023-06-22T08:18:13;32.50;53.60
23271;DHT22;11804;51.118;17.058;2023-06-22T08:20:41;32.60;52.80
23271;DHT22;11804;51.118;17.058;2023-06-22T08:23:09;31.90;54.00
23271;DHT22;11804;51.118;17.058;2023-06-22T08:25:37;32.00;54.80
23271;DHT22;11804;51.118;17.058;2023-06-22T08:28:05;32.60;52.80
23271;DHT22;11804;51.118;17.058;2023-06-22T08:30:32;32.40;53.20
23271;DHT22;11804;51.118;17.058;2023-06-22T08:33:00;31.60;54.50
23271;DHT22;11804;51.118;17.058;2023-06-22T08:35:27;31.10;55.50
23271;DHT22;11804;51.118;17.058;2023-06-22T08:37:55;30.40;57.20
23271;DHT22;11804;51.118;17.058;2023-06-22T08:40:24;30.90;57.40
23271;DHT22;11804;51.118;17.058;2023-06-22T08:42:52;31.80;55.00
23271;DHT22;11804;51.118;17.058;2023-06-22T08:45:20;33.30;51.00
23271;DHT22;11804;51.118;17.058;2023-06-22T08:47:47;33.90;49.00
23271;DHT22;11804;51.118;17.058;2023-06-22T08:50:15;34.40;49.20
23271;DHT22;11804;51.118;17.058;2023-06-22T08:52:42;35.80;47.10
23271;DHT22;11804;51.118;17.058;2023-06-22T08:55:12;35.40;44.60
23271;DHT22;11804;51.118;17.058;2023-06-22T08:57:41;35.20;44.80
23271;DHT22;11804;51.118;17.058;2023-06-22T09:00:10;35.20;44.30
23271;DHT22;11804;51.118;17.058;2023-06-22T09:02:45;34.60;45.10
23271;DHT22;11804;51.118;17.058;2023-06-22T09:05:13;34.50;45.00
23271;DHT22;11804;51.118;17.058;2023-06-22T09:07:41;32.70;47.20
23271;DHT22;11804;51.118;17.058;2023-06-22T09:10:10;32.00;49.50
23271;DHT22;11804;51.118;17.058;2023-06-22T09:12:38;32.20;48.60
23271;DHT22;11804;51.118;17.058;2023-06-22T09:15:07;31.70;50.80
23271;DHT22;11804;51.118;17.058;2023-06-22T09:17:35;31.50;51.70
23271;DHT22;11804;51.118;17.058;2023-06-22T09:20:04;32.60;49.30
23271;DHT22;11804;51.118;17.058;2023-06-22T09:22:35;31.90;50.50
23271;DHT22;11804;51.118;17.058;2023-06-22T09:25:04;32.90;49.30
23271;DHT22;11804;51.118;17.058;2023-06-22T09:27:32;34.40;46.90
23271;DHT22;11804;51.118;17.058;2023-06-22T09:29:59;34.20;44.60
23271;DHT22;11804;51.118;17.058;2023-06-22T09:32:27;32.90;47.00
23271;DHT22;11804;51.118;17.058;2023-06-22T09:34:55;31.10;50.80
23271;DHT22;11804;51.118;17.058;2023-06-22T09:37:22;30.60;52.80
23271;DHT22;11804;51.118;17.058;2023-06-22T09:39:50;31.70;51.60
23271;DHT22;11804;51.118;17.058;2023-06-22T09:42:17;32.50;48.90
23271;DHT22;11804;51.118;17.058;2023-06-22T09:44:45;33.00;47.30
23271;DHT22;11804;51.118;17.058;2023-06-22T09:47:12;32.70;47.30
23271;DHT22;11804;51.118;17.058;2023-06-22T09:49:40;33.00;45.90
23271;DHT22;11804;51.118;17.058;2023-06-22T09:52:08;32.90;45.90
23271;DHT22;11804;51.118;17.058;2023-06-22T09:54:35;33.60;44.50
23271;DHT22;11804;51.118;17.058;2023-06-22T09:57:03;33.50;46.00
23271;DHT22;11804;51.118;17.058;2023-06-22T09:59:31;33.40;45.60
23271;DHT22;11804;51.118;17.058;2023-06-22T10:01:58;33.40;46.00
23271;DHT22;11804;51.118;17.058;2023-06-22T10:04:26;34.70;43.40
23271;DHT22;11804;51.118;17.058;2023-06-22T10:06:54;33.90;43.80
23271;DHT22;11804;51.118;17.058;2023-06-22T10:09:22;32.20;46.80
23271;DHT22;11804;51.118;17.058;2023-06-22T10:11:50;31.90;46.40
23271;DHT22;11804;51.118;17.058;2023-06-22T10:14:17;31.40;46.90
23271;DHT22;11804;51.118;17.058;2023-06-22T10:16:45;31.60;47.00
23271;DHT22;11804;51.118;17.058;2023-06-22T10:19:12;31.10;47.90
23271;DHT22;11804;51.118;17.058;2023-06-22T10:21:40;30.40;49.30
23271;DHT22;11804;51.118;17.058;2023-06-22T10:24:07;31.10;49.60
23271;DHT22;11804;51.118;17.058;2023-06-22T10:26:36;32.60;46.50
23271;DHT22;11804;51.118;17.058;2023-06-22T10:29:04;33.00;45.80
23271;DHT22;11804;51.118;17.058;2023-06-22T10:31:31;32.60;46.50
23271;DHT22;11804;51.118;17.058;2023-06-22T10:33:59;32.40;46.50
23271;DHT22;11804;51.118;17.058;2023-06-22T10:36:27;32.00;47.20
23271;DHT22;11804;51.118;17.058;2023-06-22T10:38:54;32.30;47.20
23271;DHT22;11804;51.118;17.058;2023-06-22T10:41:22;32.20;46.80
23271;DHT22;11804;51.118;17.058;2023-06-22T10:43:49;31.70;47.70
23271;DHT22;11804;51.118;17.058;2023-06-22T10:46:17;32.30;45.60
23271;DHT22;11804;51.118;17.058;2023-06-22T10:48:44;31.30;46.50
23271;DHT22;11804;51.118;17.058;2023-06-22T10:51:12;30.90;46.50
23271;DHT22;11804;51.118;17.058;2023-06-22T10:53:39;30.30;48.30
23271;DHT22;11804;51.118;17.058;2023-06-22T10:56:07;29.80;50.70
23271;DHT22;11804;51.118;17.058;2023-06-22T10:58:35;30.10;51.00
23271;DHT22;11804;51.118;17.058;2023-06-22T11:01:02;29.80;51.10
23271;DHT22;11804;51.118;17.058;2023-06-22T11:03:30;30.10;51.80
23271;DHT22;11804;51.118;17.058;2023-06-22T11:05:57;30.30;49.90
23271;DHT22;11804;51.118;17.058;2023-06-22T11:08:25;30.40;48.80
23271;DHT22;11804;51.118;17.058;2023-06-22T11:10:52;30.40;48.70
23271;DHT22;11804;51.118;17.058;2023-06-22T11:13:20;30.40;49.00
23271;DHT22;11804;51.118;17.058;2023-06-22T11:15:48;30.50;49.40
23271;DHT22;11804;51.118;17.058;2023-06-22T11:18:15;30.20;48.40
23271;DHT22;11804;51.118;17.058;2023-06-22T11:20:43;30.00;49.70
23271;DHT22;11804;51.118;17.058;2023-06-22T11:23:10;30.20;48.80
23271;DHT22;11804;51.118;17.058;2023-06-22T11:25:39;30.40;48.30
23271;DHT22;11804;51.118;17.058;2023-06-22T11:28:08;30.50;48.60
23271;DHT22;11804;51.118;17.058;2023-06-22T11:30:36;30.60;47.40
23271;DHT22;11804;51.118;17.058;2023-06-22T11:33:04;30.80;46.80
23271;DHT22;11804;51.118;17.058;2023-06-22T11:35:31;30.90;46.20
23271;DHT22;11804;51.118;17.058;2023-06-22T11:37:59;30.80;46.20
23271;DHT22;11804;51.118;17.058;2023-06-22T11:40:26;30.60;47.30
23271;DHT22;11804;51.118;17.058;2023-06-22T11:42:54;30.40;48.20
23271;DHT22;11804;51.118;17.058;2023-06-22T11:45:21;30.60;47.60
23271;DHT22;11804;51.118;17.058;2023-06-22T11:47:49;30.80;47.70
23271;DHT22;11804;51.118;17.058;2023-06-22T11:50:17;31.20;47.40
23271;DHT22;11804;51.118;17.058;2023-06-22T11:52:44;30.50;48.20
23271;DHT22;11804;51.118;17.058;2023-06-22T11:55:12;30.10;47.60
23271;DHT22;11804;51.118;17.058;2023-06-22T11:57:52;30.10;48.60
23271;DHT22;11804;51.118;17.058;2023-06-22T12:00:11;29.90;48.20
23271;DHT22;11804;51.118;17.058;2023-06-22T12:02:41;29.50;49.00
23271;DHT22;11804;51.118;17.058;2023-06-22T12:05:09;29.20;49.50
23271;DHT22;11804;51.118;17.058;2023-06-22T12:07:37;29.30;50.00
23271;DHT22;11804;51.118;17.058;2023-06-22T12:10:05;29.50;49.20
23271;DHT22;11804;51.118;17.058;2023-06-22T12:12:33;29.20;50.60
23271;DHT22;11804;51.118;17.058;2023-06-22T12:15:01;29.40;50.40
23271;DHT22;11804;51.118;17.058;2023-06-22T12:17:30;29.10;50.30
23271;DHT22;11804;51.118;17.058;2023-06-22T12:19:58;29.40;50.00
23271;DHT22;11804;51.118;17.058;2023-06-22T12:22:26;29.70;49.20
23271;DHT22;11804;51.118;17.058;2023-06-22T12:24:54;30.00;48.70
23271;DHT22;11804;51.118;17.058;2023-06-22T12:27:21;29.80;49.30
23271;DHT22;11804;51.118;17.058;2023-06-22T12:29:49;29.90;49.30
23271;DHT22;11804;51.118;17.058;2023-06-22T12:32:17;29.90;48.40
23271;DHT22;11804;51.118;17.058;2023-06-22T12:34:45;29.90;48.10
23271;DHT22;11804;51.118;17.058;2023-06-22T12:37:12;29.70;47.40
23271;DHT22;11804;51.118;17.058;2023-06-22T12:39:41;29.40;48.00
23271;DHT22;11804;51.118;17.058;2023-06-22T12:42:09;29.70;48.10
23271;DHT22;11804;51.118;17.058;2023-06-22T12:44:39;30.10;47.80
23271;DHT22;11804;51.118;17.058;2023-06-22T12:47:07;30.60;47.20
23271;DHT22;11804;51.118;17.058;2023-06-22T12:49:35;30.60;45.80
23271;DHT22;11804;51.118;17.058;2023-06-22T12:52:08;30.70;46.50
23271;DHT22;11804;51.118;17.058;2023-06-22T12:54:32;30.50;46.70
23271;DHT22;11804;51.118;17.058;2023-06-22T12:57:01;30.50;46.70
23271;DHT22;11804;51.118;17.058;2023-06-22T12:59:29;30.50;47.20
23271;DHT22;11804;51.118;17.058;2023-06-22T13:01:56;30.30;47.70
23271;DHT22;11804;51.118;17.058;2023-06-22T13:04:25;30.10;48.60
23271;DHT22;11804;51.118;17.058;2023-06-22T13:06:53;30.10;49.10
23271;DHT22;11804;51.118;17.058;2023-06-22T13:09:21;29.60;47.70
23271;DHT22;11804;51.118;17.058;2023-06-22T13:11:48;29.40;49.30
23271;DHT22;11804;51.118;17.058;2023-06-22T13:14:17;29.00;48.40
23271;DHT22;11804;51.118;17.058;2023-06-22T13:16:45;29.00;48.80
23271;DHT22;11804;51.118;17.058;2023-06-22T13:19:12;29.00;48.00
23271;DHT22;11804;51.118;17.058;2023-06-22T13:21:40;29.00;48.60
23271;DHT22;11804;51.118;17.058;2023-06-22T13:24:08;29.00;47.40
23271;DHT22;11804;51.118;17.058;2023-06-22T13:26:36;29.00;48.40
23271;DHT22;11804;51.118;17.058;2023-06-22T13:29:04;29.20;48.90
23271;DHT22;11804;51.118;17.058;2023-06-22T13:31:31;29.40;48.40
23271;DHT22;11804;51.118;17.058;2023-06-22T13:33:59;29.70;47.80
23271;DHT22;11804;51.118;17.058;2023-06-22T13:36:26;30.00;47.80
23271;DHT22;11804;51.118;17.058;2023-06-22T13:38:56;30.20;45.10
23271;DHT22;11804;51.118;17.058;2023-06-22T13:41:23;30.20;45.50
23271;DHT22;11804;51.118;17.058;2023-06-22T13:43:52;30.00;47.00
23271;DHT22;11804;51.118;17.058;2023-06-22T13:46:20;30.00;47.30
23271;DHT22;11804;51.118;17.058;2023-06-22T13:48:49;29.60;47.50
23271;DHT22;11804;51.118;17.058;2023-06-22T13:51:17;29.60;47.90
23271;DHT22;11804;51.118;17.058;2023-06-22T13:53:45;29.50;47.50
23271;DHT22;11804;51.118;17.058;2023-06-22T13:56:13;29.50;47.50
23271;DHT22;11804;51.118;17.058;2023-06-22T13:58:40;29.50;47.10
23271;DHT22;11804;51.118;17.058;2023-06-22T14:01:09;29.60;47.20
23271;DHT22;11804;51.118;17.058;2023-06-22T14:03:37;29.60;47.20
23271;DHT22;11804;51.118;17.058;2023-06-22T14:06:05;29.70;46.90
23271;DHT22;11804;51.118;17.058;2023-06-22T14:08:33;29.60;47.10
23271;DHT22;11804;51.118;17.058;2023-06-22T14:11:00;29.50;46.50
23271;DHT22;11804;51.118;17.058;2023-06-22T14:13:28;29.80;45.90
23271;DHT22;11804;51.118;17.058;2023-06-22T14:15:55;30.40;45.30
23271;DHT22;11804;51.118;17.058;2023-06-22T14:18:23;30.70;44.50
23271;DHT22;11804;51.118;17.058;2023-06-22T14:20:51;30.90;43.50
23271;DHT22;11804;51.118;17.058;2023-06-22T14:23:18;31.00;43.90
23271;DHT22;11804;51.118;17.058;2023-06-22T14:25:46;31.30;42.50
23271;DHT22;11804;51.118;17.058;2023-06-22T14:28:13;31.00;42.00
23271;DHT22;11804;51.118;17.058;2023-06-22T14:30:42;30.60;42.10
23271;DHT22;11804;51.118;17.058;2023-06-22T14:33:11;30.70;42.30
23271;DHT22;11804;51.118;17.058;2023-06-22T14:35:39;30.80;42.40
23271;DHT22;11804;51.118;17.058;2023-06-22T14:38:07;31.00;42.70
23271;DHT22;11804;51.118;17.058;2023-06-22T14:40:34;31.10;42.60
23271;DHT22;11804;51.118;17.058;2023-06-22T14:43:02;31.30;41.90
23271;DHT22;11804;51.118;17.058;2023-06-22T14:45:30;30.90;42.70
23271;DHT22;11804;51.118;17.058;2023-06-22T14:47:59;30.10;44.00
23271;DHT22;11804;51.118;17.058;2023-06-22T14:50:27;29.90;44.80
23271;DHT22;11804;51.118;17.058;2023-06-22T14:52:54;30.00;45.40
23271;DHT22;11804;51.118;17.058;2023-06-22T14:55:22;29.90;45.80
23271;DHT22;11804;51.118;17.058;2023-06-22T14:57:49;29.80;46.70
23271;DHT22;11804;51.118;17.058;2023-06-22T15:00:18;29.60;46.70
23271;DHT22;11804;51.118;17.058;2023-06-22T15:02:45;29.50;46.50
23271;DHT22;11804;51.118;17.058;2023-06-22T15:05:13;29.50;46.80
23271;DHT22;11804;51.118;17.058;2023-06-22T15:07:40;29.70;46.60
23271;DHT22;11804;51.118;17.058;2023-06-22T15:10:09;29.50;46.20
23271;DHT22;11804;51.118;17.058;2023-06-22T15:12:36;29.50;46.60
23271;DHT22;11804;51.118;17.058;2023-06-22T15:15:05;29.60;46.70
23271;DHT22;11804;51.118;17.058;2023-06-22T15:17:33;29.70;46.70
23271;DHT22;11804;51.118;17.058;2023-06-22T15:20:01;29.60;46.20
23271;DHT22;11804;51.118;17.058;2023-06-22T15:22:31;29.50;46.60
23271;DHT22;11804;51.118;17.058;2023-06-22T15:24:59;29.50;46.20
23271;DHT22;11804;51.118;17.058;2023-06-22T15:27:26;29.50;46.70